sensor_id;sensor_type;location;lat;lon;timestamp;temperature;humidity
51996;DHT22;38010;53.264;6.592;2022-08-19T00:01:24;23.60;99.90
51996;DHT22;38010;53.264;6.592;2022-08-19T00:03:50;23.60;99.90
51996;DHT22;38010;53.264;6.592;2022-08-19T00:06:15;23.60;99.90
51996;DHT22;38010;53.264;6.592;2022-08-19T00:08:41;23.60;99.90
51996;DHT22;38010;53.264;6.592;2022-08-19T00:11:09;23.60;99.90
51996;DHT22;38010;53.264;6.592;2022-08-19T00:13:35;23.50;99.90
51996;DHT22;38010;53.264;6.592;2022-08-19T00:16:01;23.50;99.90
51996;DHT22;38010;53.264;6.592;2022-08-19T00:18:26;23.50;99.90
51996;DHT22;38010;53.264;6.592;2022-08-19T00:20:52;23.50;99.90
51996;DHT22;38010;53.264;6.592;2022-08-19T00:23:18;23.50;99.90
51996;DHT22;38010;53.264;6.592;2022-08-19T00:25:44;23.50;99.90
51996;DHT22;38010;53.264;6.592;2022-08-19T00:28:10;23.50;99.90
51996;DHT22;38010;53.264;6.592;2022-08-19T00:30:36;23.50;99.90
51996;DHT22;38010;53.264;6.592;2022-08-19T00:33:02;23.50;99.90
51996;DHT22;38010;53.264;6.592;2022-08-19T00:35:28;23.50;99.90
51996;DHT22;38010;53.264;6.592;2022-08-19T00:37:54;23.50;99.90
51996;DHT22;38010;53.264;6.592;2022-08-19T00:40:20;23.50;99.90
51996;DHT22;38010;53.264;6.592;2022-08-19T00:42:46;23.50;99.90
51996;DHT22;38010;53.264;6.592;2022-08-19T00:45:17;23.50;99.90
51996;DHT22;38010;53.264;6.592;2022-08-19T00:47:44;23.50;99.90
51996;DHT22;38010;53.264;6.592;2022-08-19T00:50:13;23.50;99.90
51996;DHT22;38010;53.264;6.592;2022-08-19T00:52:44;23.50;99.90
51996;DHT22;38010;53.264;6.592;2022-08-19T00:55:20;23.50;99.90
51996;DHT22;38010;53.264;6.592;2022-08-19T00:57:51;23.50;99.90
51996;DHT22;38010;53.264;6.592;2022-08-19T01:00:20;23.50;99.90
51996;DHT22;38010;53.264;6.592;2022-08-19T01:02:46;23.50;99.90
51996;DHT22;38010;53.264;6.592;2022-08-19T01:05:17;23.40;99.90
51996;DHT22;38010;53.264;6.592;2022-08-19T01:07:47;23.40;99.90
51996;DHT22;38010;53.264;6.592;2022-08-19T01:10:20;23.40;99.90
51996;DHT22;38010;53.264;6.592;2022-08-19T01:12:47;23.40;99.90
51996;DHT22;38010;53.264;6.592;2022-08-19T01:15:17;23.40;99.90
51996;DHT22;38010;53.264;6.592;2022-08-19T01:17:44;23.40;99.90
51996;DHT22;38010;53.264;6.592;2022-08-19T01:20:14;23.40;99.90
51996;DHT22;38010;53.264;6.592;2022-08-19T01:22:43;23.40;99.90
51996;DHT22;38010;53.264;6.592;2022-08-19T01:25:09;23.40;99.90
51996;DHT22;38010;53.264;6.592;2022-08-19T01:27:46;23.40;99.90
51996;DHT22;38010;53.264;6.592;2022-08-19T01:30:27;23.40;99.90
51996;DHT22;38010;53.264;6.592;2022-08-19T01:32:54;23.40;99.90
51996;DHT22;38010;53.264;6.592;2022-08-19T01:35:21;23.40;99.90
51996;DHT22;38010;53.264;6.592;2022-08-19T01:38:02;23.40;99.90
51996;DHT22;38010;53.264;6.592;2022-08-19T01:40:33;23.40;99.90
51996;DHT22;38010;53.264;6.592;2022-08-19T01:43:00;23.40;99.90
51996;DHT22;38010;53.264;6.592;2022-08-19T01:45:28;23.40;99.90
51996;DHT22;38010;53.264;6.592;2022-08-19T01:47:54;23.40;99.90
51996;DHT22;38010;53.264;6.592;2022-08-19T01:50:21;23.40;99.90
51996;DHT22;38010;53.264;6.592;2022-08-19T01:52:47;23.40;99.90
51996;DHT22;38010;53.264;6.592;2022-08-19T01:55:19;23.40;99.90
51996;DHT22;38010;53.264;6.592;2022-08-19T01:57:50;23.40;99.90
51996;DHT22;38010;53.264;6.592;2022-08-19T02:00:18;23.40;99.90
51996;DHT22;38010;53.264;6.592;2022-08-19T02:02:44;23.40;99.90
51996;DHT22;38010;53.264;6.592;2022-08-19T02:05:11;23.30;99.90
51996;DHT22;38010;53.264;6.592;2022-08-19T02:07:38;23.30;99.90
51996;DHT22;38010;53.264;6.592;2022-08-19T02:10:06;23.30;99.90
51996;DHT22;38010;53.264;6.592;2022-08-19T02:12:32;23.30;99.90
51996;DHT22;38010;53.264;6.592;2022-08-19T02:14:58;23.40;99.90
51996;DHT22;38010;53.264;6.592;2022-08-19T02:17:24;23.30;99.90
51996;DHT22;38010;53.264;6.592;2022-08-19T02:19:50;23.30;99.90
51996;DHT22;38010;53.264;6.592;2022-08-19T02:22:15;23.30;99.90
51996;DHT22;38010;53.264;6.592;2022-08-19T02:24:41;23.30;99.90
51996;DHT22;38010;53.264;6.592;2022-08-19T02:27:07;23.30;99.90
51996;DHT22;38010;53.264;6.592;2022-08-19T02:29:32;23.30;99.90
51996;DHT22;38010;53.264;6.592;2022-08-19T02:31:58;23.30;99.90
51996;DHT22;38010;53.264;6.592;2022-08-19T02:34:24;23.30;99.90
51996;DHT22;38010;53.264;6.592;2022-08-19T02:36:51;23.30;99.90
51996;DHT22;38010;53.264;6.592;2022-08-19T02:39:17;23.30;99.90
51996;DHT22;38010;53.264;6.592;2022-08-19T02:41:42;23.30;99.90
51996;DHT22;38010;53.264;6.592;2022-08-19T02:44:08;23.30;99.90
51996;DHT22;38010;53.264;6.592;2022-08-19T02:46:34;23.30;99.90
51996;DHT22;38010;53.264;6.592;2022-08-19T02:49:04;23.20;99.90
51996;DHT22;38010;53.264;6.592;2022-08-19T02:51:33;23.30;99.90
51996;DHT22;38010;53.264;6.592;2022-08-19T02:53:59;23.20;99.90
51996;DHT22;38010;53.264;6.592;2022-08-19T02:56:26;23.30;99.90
51996;DHT22;38010;53.264;6.592;2022-08-19T02:58:53;23.20;99.90
51996;DHT22;38010;53.264;6.592;2022-08-19T03:01:31;23.20;99.90
51996;DHT22;38010;53.264;6.592;2022-08-19T03:04:00;23.20;99.90
51996;DHT22;38010;53.264;6.592;2022-08-19T03:06:27;23.20;99.90
51996;DHT22;38010;53.264;6.592;2022-08-19T03:08:53;23.20;99.90
51996;DHT22;38010;53.264;6.592;2022-08-19T03:11:25;23.20;99.90
51996;DHT22;38010;53.264;6.592;2022-08-19T03:13:52;23.20;99.90
51996;DHT22;38010;53.264;6.592;2022-08-19T03:16:20;23.20;99.90
51996;DHT22;38010;53.264;6.592;2022-08-19T03:18:46;23.20;99.90
51996;DHT22;38010;53.264;6.592;2022-08-19T03:21:21;23.20;99.90
51996;DHT22;38010;53.264;6.592;2022-08-19T03:23:47;23.20;99.90
51996;DHT22;38010;53.264;6.592;2022-08-19T03:26:13;23.20;99.90
51996;DHT22;38010;53.264;6.592;2022-08-19T03:28:41;23.20;99.90
51996;DHT22;38010;53.264;6.592;2022-08-19T03:31:11;23.20;99.90
51996;DHT22;38010;53.264;6.592;2022-08-19T03:33:37;23.10;99.90
51996;DHT22;38010;53.264;6.592;2022-08-19T03:36:08;23.10;99.90
51996;DHT22;38010;53.264;6.592;2022-08-19T03:38:37;23.10;99.90
51996;DHT22;38010;53.264;6.592;2022-08-19T03:41:08;23.10;99.90
51996;DHT22;38010;53.264;6.592;2022-08-19T03:43:36;23.10;99.90
51996;DHT22;38010;53.264;6.592;2022-08-19T03:46:11;23.10;99.90
51996;DHT22;38010;53.264;6.592;2022-08-19T03:48:39;23.10;99.90
51996;DHT22;38010;53.264;6.592;2022-08-19T03:51:06;23.10;99.90
51996;DHT22;38010;53.264;6.592;2022-08-19T03:53:34;23.10;99.90
51996;DHT22;38010;53.264;6.592;2022-08-19T03:56:00;23.10;99.90
51996;DHT22;38010;53.264;6.592;2022-08-19T03:58:28;23.10;99.90
51996;DHT22;38010;53.264;6.592;2022-08-19T04:00:55;23.10;99.90
51996;DHT22;38010;53.264;6.592;2022-08-19T04:03:22;23.10;99.90
51996;DHT22;38010;53.264;6.592;2022-08-19T04:05:48;23.10;99.90
51996;DHT22;38010;53.264;6.592;2022-08-19T04:08:14;23.10;99.90
51996;DHT22;38010;53.264;6.592;2022-08-19T04:10:45;23.10;99.90
51996;DHT22;38010;53.264;6.592;2022-08-19T04:13:11;23.10;99.90
51996;DHT22;38010;53.264;6.592;2022-08-19T04:15:42;23.10;99.90
51996;DHT22;38010;53.264;6.592;2022-08-19T04:18:09;23.10;99.90
51996;DHT22;38010;53.264;6.592;2022-08-19T04:20:46;23.10;99.90
51996;DHT22;38010;53.264;6.592;2022-08-19T04:23:13;23.00;99.90
51996;DHT22;38010;53.264;6.592;2022-08-19T04:25:41;23.10;99.90
51996;DHT22;38010;53.264;6.592;2022-08-19T04:28:08;23.00;99.90
51996;DHT22;38010;53.264;6.592;2022-08-19T04:30:52;23.00;99.90
51996;DHT22;38010;53.264;6.592;2022-08-19T04:33:21;23.10;99.90
51996;DHT22;38010;53.264;6.592;2022-08-19T04:35:49;23.00;99.90
51996;DHT22;38010;53.264;6.592;2022-08-19T04:38:17;23.10;99.90
51996;DHT22;38010;53.264;6.592;2022-08-19T04:40:46;23.00;99.90
51996;DHT22;38010;53.264;6.592;2022-08-19T04:43:31;23.10;99.90
51996;DHT22;38010;53.264;6.592;2022-08-19T04:45:57;23.00;99.90
51996;DHT22;38010;53.264;6.592;2022-08-19T04:48:23;23.00;99.90
51996;DHT22;38010;53.264;6.592;2022-08-19T04:50:54;23.00;99.90
51996;DHT22;38010;53.264;6.592;2022-08-19T04:53:30;23.00;99.90
51996;DHT22;38010;53.264;6.592;2022-08-19T04:55:58;23.00;99.90
51996;DHT22;38010;53.264;6.592;2022-08-19T04:58:26;23.00;99.90
51996;DHT22;38010;53.264;6.592;2022-08-19T05:00:53;23.00;99.90
51996;DHT22;38010;53.264;6.592;2022-08-19T05:03:20;23.00;99.90
51996;DHT22;38010;53.264;6.592;2022-08-19T05:05:47;23.00;99.90
51996;DHT22;38010;53.264;6.592;2022-08-19T05:08:20;23.00;99.90
51996;DHT22;38010;53.264;6.592;2022-08-19T05:10:49;23.00;99.90
51996;DHT22;38010;53.264;6.592;2022-08-19T05:13:16;23.00;99.90
51996;DHT22;38010;53.264;6.592;2022-08-19T05:15:42;23.00;99.90
51996;DHT22;38010;53.264;6.592;2022-08-19T05:18:08;23.00;99.90
51996;DHT22;38010;53.264;6.592;2022-08-19T05:20:53;23.00;99.90
51996;DHT22;38010;53.264;6.592;2022-08-19T05:23:37;22.90;99.90
51996;DHT22;38010;53.264;6.592;2022-08-19T05:26:03;23.00;99.90
51996;DHT22;38010;53.264;6.592;2022-08-19T05:28:29;23.00;99.90
51996;DHT22;38010;53.264;6.592;2022-08-19T05:30:55;23.00;99.90
51996;DHT22;38010;53.264;6.592;2022-08-19T05:33:22;23.00;99.90
51996;DHT22;38010;53.264;6.592;2022-08-19T05:35:48;22.90;99.90
51996;DHT22;38010;53.264;6.592;2022-08-19T05:38:18;22.90;99.90
51996;DHT22;38010;53.264;6.592;2022-08-19T05:40:44;22.90;99.90
51996;DHT22;38010;53.264;6.592;2022-08-19T05:43:12;22.90;99.90
51996;DHT22;38010;53.264;6.592;2022-08-19T05:45:41;22.90;99.90
51996;DHT22;38010;53.264;6.592;2022-08-19T05:48:11;22.90;99.90
51996;DHT22;38010;53.264;6.592;2022-08-19T05:50:41;22.90;99.90
51996;DHT22;38010;53.264;6.592;2022-08-19T05:53:07;22.90;99.90
51996;DHT22;38010;53.264;6.592;2022-08-19T05:55:35;22.90;99.90
51996;DHT22;38010;53.264;6.592;2022-08-19T05:58:02;22.90;99.90
51996;DHT22;38010;53.264;6.592;2022-08-19T06:00:27;22.90;99.90
51996;DHT22;38010;53.264;6.592;2022-08-19T06:02:56;22.90;99.90
51996;DHT22;38010;53.264;6.592;2022-08-19T06:05:24;22.90;99.90
51996;DHT22;38010;53.264;6.592;2022-08-19T06:07:50;22.90;99.90
51996;DHT22;38010;53.264;6.592;2022-08-19T06:10:16;22.90;99.90
51996;DHT22;38010;53.264;6.592;2022-08-19T06:12:41;22.90;99.90
51996;DHT22;38010;53.264;6.592;2022-08-19T06:15:10;22.90;99.90
51996;DHT22;38010;53.264;6.592;2022-08-19T06:17:36;22.90;99.90
51996;DHT22;38010;53.264;6.592;2022-08-19T06:20:07;22.90;99.90
51996;DHT22;38010;53.264;6.592;2022-08-19T06:22:47;22.90;99.90
51996;DHT22;38010;53.264;6.592;2022-08-19T06:25:15;22.90;99.90
51996;DHT22;38010;53.264;6.592;2022-08-19T06:27:43;22.90;99.90
51996;DHT22;38010;53.264;6.592;2022-08-19T06:30:09;22.90;99.90
51996;DHT22;38010;53.264;6.592;2022-08-19T06:32:35;22.90;99.90
51996;DHT22;38010;53.264;6.592;2022-08-19T06:35:01;22.90;99.90
51996;DHT22;38010;53.264;6.592;2022-08-19T06:37:27;22.90;99.90
51996;DHT22;38010;53.264;6.592;2022-08-19T06:39:52;22.90;99.90
51996;DHT22;38010;53.264;6.592;2022-08-19T06:42:18;22.80;99.90
51996;DHT22;38010;53.264;6.592;2022-08-19T06:44:46;22.80;99.90
51996;DHT22;38010;53.264;6.592;2022-08-19T06:47:18;22.90;99.90
51996;DHT22;38010;53.264;6.592;2022-08-19T06:49:44;22.80;99.90
51996;DHT22;38010;53.264;6.592;2022-08-19T06:52:12;22.80;99.90
51996;DHT22;38010;53.264;6.592;2022-08-19T06:54:39;22.80;99.90
51996;DHT22;38010;53.264;6.592;2022-08-19T06:57:05;22.90;99.90
51996;DHT22;38010;53.264;6.592;2022-08-19T06:59:32;22.80;99.90
51996;DHT22;38010;53.264;6.592;2022-08-19T07:02:04;22.80;99.90
51996;DHT22;38010;53.264;6.592;2022-08-19T07:04:35;22.90;99.90
51996;DHT22;38010;53.264;6.592;2022-08-19T07:07:04;22.80;99.90
51996;DHT22;38010;53.264;6.592;2022-08-19T07:09:32;22.80;99.90
51996;DHT22;38010;53.264;6.592;2022-08-19T07:11:58;22.80;99.90
51996;DHT22;38010;53.264;6.592;2022-08-19T07:14:26;22.80;99.90
51996;DHT22;38010;53.264;6.592;2022-08-19T07:16:53;22.80;99.90
51996;DHT22;38010;53.264;6.592;2022-08-19T07:19:21;22.80;99.90
51996;DHT22;38010;53.264;6.592;2022-08-19T07:21:49;22.80;99.90
51996;DHT22;38010;53.264;6.592;2022-08-19T07:24:17;22.80;99.90
51996;DHT22;38010;53.264;6.592;2022-08-19T07:26:43;22.80;99.90
51996;DHT22;38010;53.264;6.592;2022-08-19T07:29:10;22.80;99.90
51996;DHT22;38010;53.264;6.592;2022-08-19T07:31:36;22.80;99.90
51996;DHT22;38010;53.264;6.592;2022-08-19T07:34:04;22.80;99.90
51996;DHT22;38010;53.264;6.592;2022-08-19T07:36:35;22.80;99.90
51996;DHT22;38010;53.264;6.592;2022-08-19T07:39:26;22.80;99.90
51996;DHT22;38010;53.264;6.592;2022-08-19T07:41:49;22.80;99.90
51996;DHT22;38010;53.264;6.592;2022-08-19T07:44:16;22.80;99.90
51996;DHT22;38010;53.264;6.592;2022-08-19T07:46:45;22.80;99.90
51996;DHT22;38010;53.264;6.592;2022-08-19T07:49:12;22.80;99.90
51996;DHT22;38010;53.264;6.592;2022-08-19T07:51:50;22.80;99.90
51996;DHT22;38010;53.264;6.592;2022-08-19T07:54:17;22.80;99.90
51996;DHT22;38010;53.264;6.592;2022-08-19T07:56:42;22.80;99.90
51996;DHT22;38010;53.264;6.592;2022-08-19T07:59:08;22.80;99.90
51996;DHT22;38010;53.264;6.592;2022-08-19T08:01:35;22.80;99.90
51996;DHT22;38010;53.264;6.592;2022-08-19T08:04:01;22.80;99.90
51996;DHT22;38010;53.264;6.592;2022-08-19T08:06:45;22.70;99.90
51996;DHT22;38010;53.264;6.592;2022-08-19T08:09:36;22.70;99.90
51996;DHT22;38010;53.264;6.592;2022-08-19T08:12:07;22.80;99.90
51996;DHT22;38010;53.264;6.592;2022-08-19T08:14:37;22.70;99.90
51996;DHT22;38010;53.264;6.592;2022-08-19T08:17:05;22.70;99.90
51996;DHT22;38010;53.264;6.592;2022-08-19T08:19:31;22.70;99.90
51996;DHT22;38010;53.264;6.592;2022-08-19T08:21:58;22.70;99.90
51996;DHT22;38010;53.264;6.592;2022-08-19T08:24:29;22.70;99.90
51996;DHT22;38010;53.264;6.592;2022-08-19T08:27:00;22.70;99.90
51996;DHT22;38010;53.264;6.592;2022-08-19T08:29:27;22.70;99.90
51996;DHT22;38010;53.264;6.592;2022-08-19T08:31:53;22.70;99.90
51996;DHT22;38010;53.264;6.592;2022-08-19T08:34:19;22.70;99.90
51996;DHT22;38010;53.264;6.592;2022-08-19T08:36:46;22.70;99.90
51996;DHT22;38010;53.264;6.592;2022-08-19T08:39:14;22.70;99.90
51996;DHT22;38010;53.264;6.592;2022-08-19T08:47:12;22.70;99.90
51996;DHT22;38010;53.264;6.592;2022-08-19T08:49:56;22.70;99.90
51996;DHT22;38010;53.264;6.592;2022-08-19T08:52:34;22.70;99.90
51996;DHT22;38010;53.264;6.592;2022-08-19T08:55:07;22.70;99.90
51996;DHT22;38010;53.264;6.592;2022-08-19T09:00:20;22.70;99.90
51996;DHT22;38010;53.264;6.592;2022-08-19T09:02:47;22.70;99.90
51996;DHT22;38010;53.264;6.592;2022-08-19T09:05:13;22.70;99.90
51996;DHT22;38010;53.264;6.592;2022-08-19T09:07:58;22.70;99.90
51996;DHT22;38010;53.264;6.592;2022-08-19T09:10:43;22.70;99.90
51996;DHT22;38010;53.264;6.592;2022-08-19T09:16:20;22.70;99.90
51996;DHT22;38010;53.264;6.592;2022-08-19T09:18:50;22.70;99.90
51996;DHT22;38010;53.264;6.592;2022-08-19T09:21:19;22.70;99.90
51996;DHT22;38010;53.264;6.592;2022-08-19T09:23:46;22.70;99.90
51996;DHT22;38010;53.264;6.592;2022-08-19T09:26:15;22.70;99.90
51996;DHT22;38010;53.264;6.592;2022-08-19T09:28:42;22.70;99.90
51996;DHT22;38010;53.264;6.592;2022-08-19T09:31:17;22.70;99.90
51996;DHT22;38010;53.264;6.592;2022-08-19T09:33:44;22.70;99.90
51996;DHT22;38010;53.264;6.592;2022-08-19T09:36:12;22.70;99.90
51996;DHT22;38010;53.264;6.592;2022-08-19T09:38:38;22.70;99.90
51996;DHT22;38010;53.264;6.592;2022-08-19T09:41:14;22.70;99.90
51996;DHT22;38010;53.264;6.592;2022-08-19T09:43:41;22.70;99.90
51996;DHT22;38010;53.264;6.592;2022-08-19T09:46:09;22.70;99.90
51996;DHT22;38010;53.264;6.592;2022-08-19T09:48:39;22.70;99.90
51996;DHT22;38010;53.264;6.592;2022-08-19T09:51:10;22.70;99.90
51996;DHT22;38010;53.264;6.592;2022-08-19T09:53:37;22.70;99.90
51996;DHT22;38010;53.264;6.592;2022-08-19T09:56:04;22.70;99.90
51996;DHT22;38010;53.264;6.592;2022-08-19T09:58:31;22.70;99.90
51996;DHT22;38010;53.264;6.592;2022-08-19T10:00:58;22.70;99.90
51996;DHT22;38010;53.264;6.592;2022-08-19T10:03:25;22.70;99.90
51996;DHT22;38010;53.264;6.592;2022-08-19T10:05:52;22.70;99.90
51996;DHT22;38010;53.264;6.592;2022-08-19T10:08:45;22.70;99.90
51996;DHT22;38010;53.264;6.592;2022-08-19T10:11:10;22.70;99.90
51996;DHT22;38010;53.264;6.592;2022-08-19T10:13:36;22.70;99.90
51996;DHT22;38010;53.264;6.592;2022-08-19T10:16:07;22.70;99.90
51996;DHT22;38010;53.264;6.592;2022-08-19T10:18:35;22.70;99.90
51996;DHT22;38010;53.264;6.592;2022-08-19T10:21:08;22.70;99.90
51996;DHT22;38010;53.264;6.592;2022-08-19T10:23:39;22.70;99.90
51996;DHT22;38010;53.264;6.592;2022-08-19T10:26:06;22.70;99.90
51996;DHT22;38010;53.264;6.592;2022-08-19T10:28:36;22.70;99.90
51996;DHT22;38010;53.264;6.592;2022-08-19T10:31:11;22.70;99.90
51996;DHT22;38010;53.264;6.592;2022-08-19T10:33:38;22.70;99.90
51996;DHT22;38010;53.264;6.592;2022-08-19T10:36:08;22.70;99.90
51996;DHT22;38010;53.264;6.592;2022-08-19T10:38:35;22.70;99.90
51996;DHT22;38010;53.264;6.592;2022-08-19T10:41:19;22.70;99.90
51996;DHT22;38010;53.264;6.592;2022-08-19T10:43:50;22.70;99.90
51996;DHT22;38010;53.264;6.592;2022-08-19T10:46:16;22.70;99.90
51996;DHT22;38010;53.264;6.592;2022-08-19T10:48:42;22.70;99.90
51996;DHT22;38010;53.264;6.592;2022-08-19T10:51:09;22.70;99.90
51996;DHT22;38010;53.264;6.592;2022-08-19T10:53:54;22.70;99.90
51996;DHT22;38010;53.264;6.592;2022-08-19T10:56:21;22.70;99.90
51996;DHT22;38010;53.264;6.592;2022-08-19T10:59:06;22.70;99.90
51996;DHT22;38010;53.264;6.592;2022-08-19T11:01:33;22.70;99.90
51996;DHT22;38010;53.264;6.592;2022-08-19T11:04:00;22.80;99.90
51996;DHT22;38010;53.264;6.592;2022-08-19T11:06:26;22.70;99.90
51996;DHT22;38010;53.264;6.592;2022-08-19T11:08:53;22.70;99.90
51996;DHT22;38010;53.264;6.592;2022-08-19T11:11:20;22.70;99.90
51996;DHT22;38010;53.264;6.592;2022-08-19T11:13:47;22.70;99.90
51996;DHT22;38010;53.264;6.592;2022-08-19T11:16:16;22.70;99.90
51996;DHT22;38010;53.264;6.592;2022-08-19T11:18:45;22.70;99.90
51996;DHT22;38010;53.264;6.592;2022-08-19T11:21:19;22.70;99.90
51996;DHT22;38010;53.264;6.592;2022-08-19T11:23:47;22.70;99.90
51996;DHT22;38010;53.264;6.592;2022-08-19T11:26:14;22.70;99.90
51996;DHT22;38010;53.264;6.592;2022-08-19T11:28:40;22.70;99.90
51996;DHT22;38010;53.264;6.592;2022-08-19T11:31:14;22.80;99.90
51996;DHT22;38010;53.264;6.592;2022-08-19T11:33:40;22.80;99.90
51996;DHT22;38010;53.264;6.592;2022-08-19T11:36:07;22.80;99.90
51996;DHT22;38010;53.264;6.592;2022-08-19T11:38:33;22.80;99.90
51996;DHT22;38010;53.264;6.592;2022-08-19T11:41:04;22.80;99.90
51996;DHT22;38010;53.264;6.592;2022-08-19T11:43:30;22.80;99.90
51996;DHT22;38010;53.264;6.592;2022-08-19T11:45:57;22.80;99.90
51996;DHT22;38010;53.264;6.592;2022-08-19T11:48:24;22.80;99.90
51996;DHT22;38010;53.264;6.592;2022-08-19T11:50:58;22.80;99.90
51996;DHT22;38010;53.264;6.592;2022-08-19T11:53:24;22.80;99.90
51996;DHT22;38010;53.264;6.592;2022-08-19T11:55:52;22.80;99.90
51996;DHT22;38010;53.264;6.592;2022-08-19T11:58:21;22.80;99.90
51996;DHT22;38010;53.264;6.592;2022-08-19T12:00:47;22.80;99.90
51996;DHT22;38010;53.264;6.592;2022-08-19T12:03:13;22.80;99.90
51996;DHT22;38010;53.264;6.592;2022-08-19T12:05:40;22.80;99.90
51996;DHT22;38010;53.264;6.592;2022-08-19T12:08:06;22.80;99.90
51996;DHT22;38010;53.264;6.592;2022-08-19T12:10:33;22.80;99.90
51996;DHT22;38010;53.264;6.592;2022-08-19T12:12:59;22.80;99.90
51996;DHT22;38010;53.264;6.592;2022-08-19T12:15:26;22.80;99.90
51996;DHT22;38010;53.264;6.592;2022-08-19T12:17:53;22.80;99.90
51996;DHT22;38010;53.264;6.592;2022-08-19T12:20:22;22.80;99.90
51996;DHT22;38010;53.264;6.592;2022-08-19T12:22:49;22.80;99.90
51996;DHT22;38010;53.264;6.592;2022-08-19T12:25:16;22.90;99.90
51996;DHT22;38010;53.264;6.592;2022-08-19T12:27:42;22.90;99.90
51996;DHT22;38010;53.264;6.592;2022-08-19T12:30:10;22.90;99.90
51996;DHT22;38010;53.264;6.592;2022-08-19T12:32:36;22.90;99.90
51996;DHT22;38010;53.264;6.592;2022-08-19T12:35:02;22.90;99.90
51996;DHT22;38010;53.264;6.592;2022-08-19T12:37:28;22.90;99.90
51996;DHT22;38010;53.264;6.592;2022-08-19T12:39:55;22.90;99.90
51996;DHT22;38010;53.264;6.592;2022-08-19T12:42:20;22.90;99.90
51996;DHT22;38010;53.264;6.592;2022-08-19T12:44:47;22.90;99.90
51996;DHT22;38010;53.264;6.592;2022-08-19T12:47:13;22.90;99.90
51996;DHT22;38010;53.264;6.592;2022-08-19T12:49:40;22.90;99.90
51996;DHT22;38010;53.264;6.592;2022-08-19T12:52:07;22.90;99.90
51996;DHT22;38010;53.264;6.592;2022-08-19T12:54:34;22.90;99.90
51996;DHT22;38010;53.264;6.592;2022-08-19T12:57:00;22.90;99.90
51996;DHT22;38010;53.264;6.592;2022-08-19T12:59:29;22.90;99.90
51996;DHT22;38010;53.264;6.592;2022-08-19T13:01:55;22.90;99.90
51996;DHT22;38010;53.264;6.592;2022-08-19T13:04:20;22.90;99.90
51996;DHT22;38010;53.264;6.592;2022-08-19T13:06:46;22.90;99.90
51996;DHT22;38010;53.264;6.592;2022-08-19T13:09:12;22.90;99.90
51996;DHT22;38010;53.264;6.592;2022-08-19T13:11:38;22.90;99.90
51996;DHT22;38010;53.264;6.592;2022-08-19T13:14:04;22.80;99.90
51996;DHT22;38010;53.264;6.592;2022-08-19T13:16:30;22.80;99.90
51996;DHT22;38010;53.264;6.592;2022-08-19T13:18:56;22.80;99.90
51996;DHT22;38010;53.264;6.592;2022-08-19T13:21:25;22.80;99.90
51996;DHT22;38010;53.264;6.592;2022-08-19T13:23:52;22.80;99.90
51996;DHT22;38010;53.264;6.592;2022-08-19T13:26:18;22.80;99.90
51996;DHT22;38010;53.264;6.592;2022-08-19T13:28:44;22.80;99.90
51996;DHT22;38010;53.264;6.592;2022-08-19T13:31:32;22.90;99.90
51996;DHT22;38010;53.264;6.592;2022-08-19T13:34:19;22.90;99.90
51996;DHT22;38010;53.264;6.592;2022-08-19T13:36:46;22.90;99.90
51996;DHT22;38010;53.264;6.592;2022-08-19T13:39:12;22.90;99.90
51996;DHT22;38010;53.264;6.592;2022-08-19T13:41:44;22.90;99.90
51996;DHT22;38010;53.264;6.592;2022-08-19T13:44:13;22.90;99.90
51996;DHT22;38010;53.264;6.592;2022-08-19T13:46:39;22.90;99.90
51996;DHT22;38010;53.264;6.592;2022-08-19T13:49:05;22.90;99.90
51996;DHT22;38010;53.264;6.592;2022-08-19T13:51:30;22.90;99.90
51996;DHT22;38010;53.264;6.592;2022-08-19T13:53:56;22.90;99.90
51996;DHT22;38010;53.264;6.592;2022-08-19T13:56:22;22.90;99.90
51996;DHT22;38010;53.264;6.592;2022-08-19T13:58:47;22.90;99.90
51996;DHT22;38010;53.264;6.592;2022-08-19T14:01:19;22.90;99.90
51996;DHT22;38010;53.264;6.592;2022-08-19T14:03:45;22.90;99.90
51996;DHT22;38010;53.264;6.592;2022-08-19T14:06:11;22.90;99.90
51996;DHT22;38010;53.264;6.592;2022-08-19T14:08:36;22.90;99.90
51996;DHT22;38010;53.264;6.592;2022-08-19T14:11:05;22.90;99.90
51996;DHT22;38010;53.264;6.592;2022-08-19T14:13:30;22.90;99.90
51996;DHT22;38010;53.264;6.592;2022-08-19T14:15:59;22.90;99.90
51996;DHT22;38010;53.264;6.592;2022-08-19T14:18:24;22.90;99.90
51996;DHT22;38010;53.264;6.592;2022-08-19T14:20:51;23.00;99.90
51996;DHT22;38010;53.264;6.592;2022-08-19T14:23:17;23.10;99.90
51996;DHT22;38010;53.264;6.592;2022-08-19T14:25:43;23.10;99.90
51996;DHT22;38010;53.264;6.592;2022-08-19T14:28:09;23.10;99.90
51996;DHT22;38010;53.264;6.592;2022-08-19T14:30:36;23.00;99.90
51996;DHT22;38010;53.264;6.592;2022-08-19T14:33:04;23.00;99.90
51996;DHT22;38010;53.264;6.592;2022-08-19T14:35:32;23.00;99.90
51996;DHT22;38010;53.264;6.592;2022-08-19T14:38:02;23.00;99.90
51996;DHT22;38010;53.264;6.592;2022-08-19T14:40:29;23.00;99.90
51996;DHT22;38010;53.264;6.592;2022-08-19T14:43:03;23.10;99.90
51996;DHT22;38010;53.264;6.592;2022-08-19T14:45:36;23.20;99.90
51996;DHT22;38010;53.264;6.592;2022-08-19T14:48:02;23.20;99.90
51996;DHT22;38010;53.264;6.592;2022-08-19T14:50:28;23.20;99.90
51996;DHT22;38010;53.264;6.592;2022-08-19T14:53:03;23.20;99.90
51996;DHT22;38010;53.264;6.592;2022-08-19T14:55:30;23.20;99.90
51996;DHT22;38010;53.264;6.592;2022-08-19T14:57:55;23.20;99.90
51996;DHT22;38010;53.264;6.592;2022-08-19T15:00:22;23.20;99.90
51996;DHT22;38010;53.264;6.592;2022-08-19T15:02:49;23.20;99.90
51996;DHT22;38010;53.264;6.592;2022-08-19T15:05:15;23.20;99.90
51996;DHT22;38010;53.264;6.592;2022-08-19T15:07:42;23.20;99.90
51996;DHT22;38010;53.264;6.592;2022-08-19T15:10:10;23.20;99.90
51996;DHT22;38010;53.264;6.592;2022-08-19T15:12:37;23.20;99.90
51996;DHT22;38010;53.264;6.592;2022-08-19T15:15:06;23.20;99.90
51996;DHT22;38010;53.264;6.592;2022-08-19T15:17:33;23.20;99.90
51996;DHT22;38010;53.264;6.592;2022-08-19T15:19:58;23.20;99.90
51996;DHT22;38010;53.264;6.592;2022-08-19T15:22:24;23.20;99.90
51996;DHT22;38010;53.264;6.592;2022-08-19T15:24:50;23.20;99.90
51996;DHT22;38010;53.264;6.592;2022-08-19T15:27:15;23.20;99.90
51996;DHT22;38010;53.264;6.592;2022-08-19T15:29:41;23.20;99.90
51996;DHT22;38010;53.264;6.592;2022-08-19T15:32:07;23.20;99.90
51996;DHT22;38010;53.264;6.592;2022-08-19T15:34:34;23.20;99.90
51996;DHT22;38010;53.264;6.592;2022-08-19T15:37:00;23.20;99.90
51996;DHT22;38010;53.264;6.592;2022-08-19T15:39:26;23.20;99.90
51996;DHT22;38010;53.264;6.592;2022-08-19T15:41:52;23.20;99.90
51996;DHT22;38010;53.264;6.592;2022-08-19T15:44:19;23.20;99.90
51996;DHT22;38010;53.264;6.592;2022-08-19T15:46:47;23.20;99.90
51996;DHT22;38010;53.264;6.592;2022-08-19T15:49:16;23.20;99.90